Time;durP1;ratioP1;P1;durP2;ratioP2;P2;SDS_P1;SDS_P2;PMS_P1;PMS_P2;Temp;Humidity;BMP_temperature;BMP_pressure;BME280_temperature;BME280_humidity;BME280_pressure;Samples;Min_cycle;Max_cycle;Signal;HPM_P1;HPM_P2
2022/06/02 00:00:35;;;;;;;16.13;8.27;;;8.10;99.90;;;;;;5070402;28;20044;-64
2022/06/02 00:03:15;;;;;;;16.55;9.73;;;8.10;99.90;;;;;;5074386;28;20044;-64
2022/06/02 00:06:08;;;;;;;16.10;9.55;;;8.20;99.90;;;;;;5076683;28;20067;-64
2022/06/02 00:08:53;;;;;;;13.38;8.68;;;8.20;99.90;;;;;;5070388;28;20067;-64
2022/06/02 00:11:48;;;;;;;16.15;9.68;;;8.20;99.90;;;;;;5072287;28;20040;-64
2022/06/02 00:14:17;;;;;;;14.65;9.55;;;8.20;99.90;;;;;;5069882;28;20504;-64
2022/06/02 00:16:54;;;;;;;15.90;9.93;;;8.10;99.90;;;;;;5068022;28;20064;-64
2022/06/02 00:19:57;;;;;;;16.00;9.40;;;8.10;99.90;;;;;;5066542;28;20130;-64
2022/06/02 00:22:32;;;;;;;16.27;10.23;;;8.10;99.90;;;;;;5069908;28;20044;-64
2022/06/02 00:25:20;;;;;;;16.63;10.15;;;8.10;99.90;;;;;;5080377;28;20050;-64
2022/06/02 00:28:12;;;;;;;15.98;10.23;;;8.10;99.90;;;;;;5069996;28;20032;-64
2022/06/02 00:30:44;;;;;;;16.02;10.20;;;8.10;99.90;;;;;;5087298;28;20082;-64
2022/06/02 00:33:37;;;;;;;16.00;10.25;;;8.00;99.90;;;;;;5067508;28;20510;-63
2022/06/02 00:36:14;;;;;;;18.27;10.35;;;7.90;99.90;;;;;;5066842;28;20083;-64
2022/06/02 00:38:40;;;;;;;15.30;10.32;;;7.80;99.90;;;;;;5068321;28;20075;-64
2022/06/02 00:41:31;;;;;;;17.60;10.48;;;7.80;99.90;;;;;;5071460;28;20127;-64
2022/06/02 00:44:32;;;;;;;18.25;11.25;;;7.70;99.90;;;;;;5068607;28;20052;-63
2022/06/02 00:47:16;;;;;;;;;;;7.60;99.90;;;;;;5069982;28;20048;-63
2022/06/02 00:49:54;;;;;;;17.85;9.55;;;7.60;99.90;;;;;;5074087;28;19920;-63
2022/06/02 00:52:36;;;;;;;16.33;9.48;;;7.50;99.90;;;;;;5068196;28;20036;-64
2022/06/02 00:58:05;;;;;;;16.23;9.77;;;7.40;99.90;;;;;;5071901;28;20072;-63
2022/06/02 01:00:45;;;;;;;17.92;10.85;;;7.50;99.90;;;;;;5077798;28;20044;-64
2022/06/02 01:03:19;;;;;;;18.30;11.20;;;7.60;99.90;;;;;;5072253;28;20488;-64
2022/06/02 01:06:06;;;;;;;23.40;12.15;;;7.60;99.90;;;;;;5070010;28;20075;-64
2022/06/02 01:09:19;;;;;;;18.75;12.02;;;7.70;99.90;;;;;;5078353;28;20401;-64
2022/06/02 01:12:03;;;;;;;20.15;11.82;;;7.80;99.90;;;;;;5073557;28;20029;-64
2022/06/02 01:14:53;;;;;;;20.73;11.77;;;7.70;99.90;;;;;;5071521;28;20089;-63
2022/06/02 01:17:47;;;;;;;21.73;12.10;;;7.80;99.90;;;;;;5077001;28;20040;-63
2022/06/02 01:20:38;;;;;;;20.98;12.05;;;7.80;99.90;;;;;;5075754;28;20708;-62
2022/06/02 01:23:37;;;;;;;18.77;11.73;;;7.80;99.90;;;;;;5072648;28;20456;-64
2022/06/02 01:26:24;;;;;;;22.27;12.45;;;7.80;99.90;;;;;;5078547;28;20044;-64
2022/06/02 01:29:08;;;;;;;18.77;12.20;;;7.80;99.90;;;;;;5074508;28;20461;-63
2022/06/02 01:32:06;;;;;;;20.92;12.40;;;7.70;99.90;;;;;;5075187;28;20044;-64
2022/06/02 01:34:50;;;;;;;18.92;12.38;;;7.70;99.90;;;;;;5058850;28;20116;-64
2022/06/02 01:37:25;;;;;;;17.58;11.27;;;7.70;99.90;;;;;;5078381;28;20051;-64
2022/06/02 01:40:13;;;;;;;21.20;12.60;;;7.60;99.90;;;;;;5078026;28;20040;-64
2022/06/02 01:43:03;;;;;;;19.90;11.70;;;7.60;99.90;;;;;;5073057;28;20060;-64
2022/06/02 01:46:07;;;;;;;18.17;11.93;;;7.60;99.90;;;;;;5083431;28;20040;-64
2022/06/02 01:48:45;;;;;;;22.45;12.48;;;7.70;99.90;;;;;;5080930;28;20037;-64
2022/06/02 01:51:22;;;;;;;19.98;12.70;;;7.60;99.90;;;;;;5073264;28;20484;-64
2022/06/02 01:53:59;;;;;;;17.65;12.00;;;7.50;99.90;;;;;;5069269;28;20450;-64
2022/06/02 01:56:31;;;;;;;18.65;11.98;;;7.50;99.90;;;;;;5075756;28;20051;-63
2022/06/02 01:59:09;;;;;;;21.80;12.70;;;7.50;99.90;;;;;;5073241;28;20051;-63
2022/06/02 02:01:57;;;;;;;20.45;12.00;;;7.40;99.90;;;;;;5075596;28;20036;-63
2022/06/02 02:05:13;;;;;;;19.70;12.15;;;7.40;99.90;;;;;;5073653;28;20048;-63
2022/06/02 02:07:58;;;;;;;21.02;12.32;;;7.50;99.90;;;;;;5080547;28;20111;-64
2022/06/02 02:10:36;;;;;;;20.85;12.32;;;7.50;99.90;;;;;;5075249;28;20074;-64
2022/06/02 02:13:23;;;;;;;20.65;12.30;;;7.50;99.90;;;;;;5079335;28;20060;-64
2022/06/02 02:16:06;;;;;;;24.23;13.10;;;7.40;99.90;;;;;;5075580;28;20045;-63
2022/06/02 02:18:53;;;;;;;22.40;12.98;;;7.40;99.90;;;;;;5074967;28;20058;-63
2022/06/02 02:21:23;;;;;;;22.23;13.35;;;7.30;99.90;;;;;;5070000;28;20044;-64
2022/06/02 02:24:11;;;;;;;24.65;13.63;;;7.30;99.90;;;;;;5068218;28;20036;-63
2022/06/02 02:27:00;;;;;;;20.90;12.57;;;7.30;99.90;;;;;;5079382;28;20044;-63
2022/06/02 02:29:44;;;;;;;24.42;14.05;;;7.30;99.90;;;;;;5072221;28;20125;-64
2022/06/02 02:32:55;;;;;;;22.25;13.20;;;7.20;99.90;;;;;;5072194;28;20063;-64
2022/06/02 02:35:24;;;;;;;22.05;13.63;;;7.20;99.90;;;;;;4991573;28;20048;-63
2022/06/02 02:38:07;;;;;;;24.02;13.82;;;7.20;99.90;;;;;;5067296;28;20044;-63
2022/06/02 02:40:45;;;;;;;25.52;14.68;;;7.20;99.90;;;;;;5076475;28;20044;-63
2022/06/02 02:43:24;;;;;;;29.05;15.93;;;7.30;99.90;;;;;;5068658;28;20385;-63
2022/06/02 02:46:10;;;;;;;24.98;14.90;;;7.20;99.90;;;;;;5078981;28;20595;-63
2022/06/02 02:49:00;;;;;;;23.90;14.15;;;7.20;99.90;;;;;;5079810;28;20036;-64
2022/06/02 02:51:45;;;;;;;28.85;14.35;;;7.20;99.90;;;;;;5072388;28;20036;-63
2022/06/02 02:54:23;;;;;;;26.35;15.18;;;7.10;99.90;;;;;;5068300;28;20041;-63
2022/06/02 02:57:05;;;;;;;26.05;14.38;;;7.20;99.90;;;;;;5070040;28;20451;-63
2022/06/02 02:59:37;;;;;;;24.63;14.60;;;7.20;99.90;;;;;;5071016;28;20110;-63
2022/06/02 03:02:15;;;;;;;32.83;16.80;;;7.20;99.90;;;;;;5069384;28;20117;-63
2022/06/02 03:04:51;;;;;;;25.70;14.77;;;7.00;99.90;;;;;;5070090;28;20068;-63
2022/06/02 03:07:17;;;;;;;26.67;15.57;;;7.10;99.90;;;;;;5071222;28;20041;-64
2022/06/02 03:09:55;;;;;;;30.23;15.65;;;7.10;99.90;;;;;;5052595;28;20032;-63
2022/06/02 03:12:46;;;;;;;25.45;15.70;;;7.20;99.90;;;;;;5078409;28;20040;-63
2022/06/02 03:15:50;;;;;;;24.77;14.45;;;7.10;99.90;;;;;;5069822;28;20032;-63
2022/06/02 03:18:42;;;;;;;28.52;16.35;;;7.00;99.90;;;;;;5070159;28;20055;-64
2022/06/02 03:21:31;;;;;;;28.27;15.02;;;7.10;99.90;;;;;;5065264;28;20052;-63
2022/06/02 03:24:09;;;;;;;29.92;15.63;;;7.10;99.90;;;;;;5068861;28;20067;-63
2022/06/02 03:26:44;;;;;;;30.48;16.13;;;7.10;99.90;;;;;;5098515;28;20048;-63
2022/06/02 03:29:19;;;;;;;26.25;15.15;;;7.20;99.90;;;;;;5069526;28;20119;-64
2022/06/02 03:31:48;;;;;;;28.13;15.95;;;7.20;99.90;;;;;;5073421;28;20066;-64
2022/06/02 03:34:43;;;;;;;28.13;16.10;;;7.20;99.90;;;;;;5068443;28;20032;-64
2022/06/02 03:37:18;;;;;;;26.52;14.90;;;7.20;99.90;;;;;;5069683;28;20118;-63
2022/06/02 03:40:22;;;;;;;30.80;15.52;;;7.10;99.90;;;;;;5074006;28;20391;-63
2022/06/02 03:42:59;;;;;;;25.83;14.57;;;7.20;99.90;;;;;;5070653;28;20419;-63
2022/06/02 03:45:37;;;;;;;30.95;16.25;;;7.20;99.90;;;;;;5070538;28;20579;-63
2022/06/02 03:48:47;;;;;;;26.60;15.48;;;7.20;99.90;;;;;;5075280;28;20068;-63
2022/06/02 03:51:30;;;;;;;25.42;14.48;;;7.20;99.90;;;;;;5068380;28;20369;-63
2022/06/02 03:54:04;;;;;;;28.92;15.05;;;7.20;99.90;;;;;;5069601;28;22207;-63
2022/06/02 03:56:44;;;;;;;26.38;15.73;;;7.10;99.90;;;;;;5073310;28;20028;-63
2022/06/02 03:59:28;;;;;;;29.42;15.68;;;7.10;99.90;;;;;;5068158;28;20056;-62
2022/06/02 04:02:05;;;;;;;27.20;15.50;;;7.10;99.90;;;;;;5073662;28;20056;-63
2022/06/02 04:04:48;;;;;;;32.42;15.82;;;7.20;99.90;;;;;;5075663;28;20110;-63
2022/06/02 04:07:17;;;;;;;26.13;14.48;;;7.10;99.90;;;;;;5076802;28;20632;-63
2022/06/02 04:10:07;;;;;;;27.90;15.02;;;7.20;99.90;;;;;;5077638;28;20488;-63
2022/06/02 04:13:37;;;;;;;26.90;15.27;;;7.10;99.90;;;;;;5070827;28;20094;-63
2022/06/02 04:16:17;;;;;;;28.35;16.33;;;7.10;99.90;;;;;;5037231;28;20507;-63
2022/06/02 04:22:13;;;;;;;28.25;16.52;;;7.30;99.90;;;;;;5070714;28;20443;-63
2022/06/02 04:25:10;;;;;;;27.67;15.85;;;7.30;99.90;;;;;;5069321;28;20151;-64
2022/06/02 04:27:59;;;;;;;29.48;15.18;;;7.40;99.90;;;;;;5074483;28;20123;-63
2022/06/02 04:31:02;;;;;;;27.85;15.63;;;7.40;99.90;;;;;;5070954;28;20492;-63
2022/06/02 04:33:33;;;;;;;31.77;16.35;;;7.50;99.90;;;;;;5051753;28;20048;-63
2022/06/02 04:36:26;;;;;;;34.38;16.73;;;7.50;99.90;;;;;;5070077;28;20036;-63
2022/06/02 04:39:16;;;;;;;31.90;16.23;;;7.70;99.90;;;;;;5074108;28;20067;-63
2022/06/02 04:41:42;;;;;;;;;;;7.70;99.90;;;;;;5067235;28;20048;-63
2022/06/02 04:44:35;;;;;;;32.33;16.15;;;7.80;99.90;;;;;;5075439;28;20001;-63
2022/06/02 04:47:13;;;;;;;31.23;16.30;;;7.90;99.90;;;;;;5072910;28;20124;-63
2022/06/02 04:49:53;;;;;;;32.95;17.17;;;8.00;99.90;;;;;;5070058;28;20037;-63
2022/06/02 04:53:16;;;;;;;30.88;16.63;;;8.10;99.90;;;;;;5075730;28;20041;-63
2022/06/02 04:56:00;;;;;;;28.95;15.95;;;8.20;99.90;;;;;;5052615;28;20075;-63
2022/06/02 04:58:52;;;;;;;32.08;16.55;;;8.30;99.90;;;;;;5074778;28;20151;-64
2022/06/02 05:01:43;;;;;;;31.67;16.25;;;8.40;99.90;;;;;;5071015;28;20037;-64
2022/06/02 05:04:31;;;;;;;31.95;16.67;;;8.50;99.90;;;;;;5071566;28;20119;-64
2022/06/02 05:07:20;;;;;;;28.02;15.93;;;8.60;99.90;;;;;;5080809;28;20175;-64
2022/06/02 05:10:00;;;;;;;24.83;15.82;;;8.80;99.90;;;;;;5073818;28;20036;-63
2022/06/02 05:13:01;;;;;;;26.40;15.40;;;8.90;99.90;;;;;;5072441;28;20032;-64
2022/06/02 05:15:51;;;;;;;26.52;15.32;;;9.10;99.90;;;;;;5087624;28;20096;-64
2022/06/02 05:18:44;;;;;;;22.42;13.40;;;9.30;99.90;;;;;;5068122;28;20420;-64
2022/06/02 05:21:37;;;;;;;23.33;14.13;;;9.40;99.90;;;;;;5070711;28;20051;-63
2022/06/02 05:24:06;;;;;;;18.85;12.32;;;9.60;99.90;;;;;;5069122;28;20115;-64
2022/06/02 05:26:48;;;;;;;17.00;11.38;;;9.70;99.90;;;;;;5074772;28;20042;-63
2022/06/02 05:29:38;;;;;;;16.55;11.85;;;9.80;99.90;;;;;;5073545;28;20149;-63
2022/06/02 05:32:25;;;;;;;14.63;10.93;;;10.00;99.90;;;;;;5078703;28;20123;-64
2022/06/02 05:35:22;;;;;;;15.07;10.85;;;10.10;99.90;;;;;;5073970;28;20040;-63
2022/06/02 05:37:51;;;;;;;14.02;10.32;;;10.30;99.90;;;;;;5072280;28;20439;-64
2022/06/02 05:40:30;;;;;;;13.70;9.60;;;10.40;99.90;;;;;;5080594;28;20040;-63
2022/06/02 05:43:17;;;;;;;14.55;9.45;;;10.50;99.90;;;;;;5086533;28;20245;-63
2022/06/02 05:45:54;;;;;;;14.15;9.70;;;10.70;99.90;;;;;;5074089;28;20052;-63
2022/06/02 05:48:25;;;;;;;12.10;8.75;;;10.80;99.90;;;;;;5070791;28;20054;-64
2022/06/02 05:50:59;;;;;;;11.73;8.35;;;10.90;99.90;;;;;;5079087;28;20118;-63
2022/06/02 05:53:42;;;;;;;13.57;9.20;;;11.10;99.90;;;;;;5092547;28;20396;-63
2022/06/02 05:56:41;;;;;;;12.88;9.13;;;11.20;99.90;;;;;;5073969;28;20055;-63
2022/06/02 05:59:57;;;;;;;12.27;9.05;;;11.40;99.90;;;;;;5081802;28;20033;-64
2022/06/02 06:03:00;;;;;;;12.35;8.55;;;11.50;99.90;;;;;;5043095;28;20044;-64
2022/06/02 06:05:36;;;;;;;9.85;8.00;;;11.70;99.90;;;;;;5071261;28;20040;-63
2022/06/02 06:08:11;;;;;;;8.82;7.32;;;11.90;99.90;;;;;;5080435;28;20036;-64
2022/06/02 06:10:54;;;;;;;10.32;7.43;;;12.10;99.90;;;;;;5076516;28;20036;-63
2022/06/02 06:13:41;;;;;;;9.88;7.03;;;12.30;99.90;;;;;;5068928;28;20037;-64
2022/06/02 06:16:34;;;;;;;10.63;7.15;;;12.50;99.90;;;;;;5070822;28;20032;-63
2022/06/02 06:19:31;;;;;;;9.63;6.72;;;12.60;99.90;;;;;;5069993;28;20040;-63
2022/06/02 06:22:12;;;;;;;7.75;5.78;;;12.80;99.90;;;;;;5079198;28;20040;-63
2022/06/02 06:24:43;;;;;;;8.05;5.97;;;13.00;99.90;;;;;;5075408;28;20039;-63
2022/06/02 06:27:25;;;;;;;5.97;5.38;;;13.10;99.90;;;;;;5078869;28;20047;-63
2022/06/02 06:30:10;;;;;;;5.53;5.03;;;13.30;99.90;;;;;;5074272;28;20044;-63
2022/06/02 06:32:53;;;;;;;7.10;5.45;;;13.50;99.90;;;;;;5079692;28;20040;-63
2022/06/02 06:35:44;;;;;;;6.15;5.13;;;13.70;99.90;;;;;;5065305;28;20050;-63
2022/06/02 06:38:13;;;;;;;;;;;13.90;99.90;;;;;;5071860;28;20042;-63
2022/06/02 06:41:15;;;;;;;7.20;4.70;;;13.90;99.90;;;;;;5067010;28;19970;-63
2022/06/02 06:43:44;;;;;;;7.65;4.43;;;14.00;99.90;;;;;;5080343;28;20095;-64
2022/06/02 06:46:25;;;;;;;6.00;3.92;;;14.10;99.90;;;;;;5082469;28;20459;-63
2022/06/02 06:49:09;;;;;;;5.18;4.28;;;14.40;99.90;;;;;;5084991;28;20437;-63
2022/06/02 06:51:53;;;;;;;4.72;3.40;;;14.40;99.90;;;;;;5071204;28;20062;-64
2022/06/02 06:54:38;;;;;;;3.63;3.13;;;14.60;99.90;;;;;;5083217;28;20075;-63
2022/06/02 06:57:20;;;;;;;3.00;2.70;;;14.80;99.90;;;;;;5071788;28;20119;-63
2022/06/02 07:00:06;;;;;;;2.72;2.38;;;14.90;99.90;;;;;;5070451;28;20045;-63
2022/06/02 07:02:43;;;;;;;3.05;2.67;;;14.90;98.00;;;;;;5072570;28;20043;-63
2022/06/02 07:05:25;;;;;;;4.03;2.42;;;15.00;99.90;;;;;;5067499;28;20053;-63
2022/06/02 07:08:11;;;;;;;2.97;2.20;;;15.30;99.90;;;;;;5070261;28;20045;-63
2022/06/02 07:10:51;;;;;;;4.07;2.45;;;15.60;99.90;;;;;;5069619;28;20047;-63
2022/06/02 07:13:26;;;;;;;2.83;2.20;;;15.70;99.90;;;;;;5072205;28;20032;-64
2022/06/02 07:16:24;;;;;;;2.78;2.58;;;15.70;99.90;;;;;;5084892;28;20053;-64
2022/06/02 07:19:20;;;;;;;3.05;1.98;;;15.80;99.70;;;;;;5072424;28;20069;-63
2022/06/02 07:22:09;;;;;;;2.70;2.40;;;16.10;98.60;;;;;;5079229;28;20551;-64
2022/06/02 07:24:50;;;;;;;2.72;2.08;;;16.20;93.20;;;;;;5085059;28;20039;-64
2022/06/02 07:27:34;;;;;;;2.50;1.85;;;16.30;99.90;;;;;;5072363;28;20040;-65
2022/06/02 07:30:21;;;;;;;4.75;1.95;;;16.60;93.90;;;;;;5068359;28;20126;-64
2022/06/02 07:33:03;;;;;;;4.30;2.00;;;16.70;92.90;;;;;;5072293;28;20033;-64
2022/06/02 07:35:47;;;;;;;4.90;2.45;;;16.70;92.30;;;;;;5066297;28;20592;-63
2022/06/02 07:38:38;;;;;;;2.67;1.70;;;16.60;92.80;;;;;;5073618;28;20112;-64
2022/06/02 07:41:15;;;;;;;2.83;1.83;;;16.30;94.60;;;;;;5068029;28;20041;-64
2022/06/02 07:44:02;;;;;;;4.80;1.83;;;16.50;94.80;;;;;;5069234;28;20052;-64
2022/06/02 07:46:48;;;;;;;2.92;1.85;;;16.90;94.40;;;;;;5077384;28;20048;-64
2022/06/02 07:50:00;;;;;;;1.67;1.40;;;17.30;86.30;;;;;;5076494;28;20066;-64
2022/06/02 07:52:40;;;;;;;3.53;1.48;;;17.50;91.20;;;;;;5004183;28;20405;-65
2022/06/02 07:55:27;;;;;;;3.65;1.60;;;17.90;91.20;;;;;;4997721;28;20904;-64
2022/06/02 07:58:29;;;;;;;2.55;1.73;;;18.30;91.90;;;;;;5052236;28;20044;-64
2022/06/02 08:01:03;;;;;;;2.85;1.80;;;18.20;83.40;;;;;;5074743;28;20062;-64
2022/06/02 08:03:37;;;;;;;5.18;2.00;;;17.80;86.40;;;;;;5069170;28;20037;-64
2022/06/02 08:06:08;;;;;;;4.28;2.08;;;17.60;87.40;;;;;;5069354;28;20048;-64
2022/06/02 08:09:03;;;;;;;2.63;1.60;;;17.40;84.80;;;;;;5069477;28;20047;-64
2022/06/02 08:11:42;;;;;;;2.15;1.70;;;17.20;84.70;;;;;;5035401;28;20048;-64
2022/06/02 08:14:35;;;;;;;3.20;1.90;;;17.40;85.50;;;;;;5091226;28;20400;-64
2022/06/02 08:17:33;;;;;;;2.05;1.50;;;18.00;78.70;;;;;;5070980;28;20037;-64
2022/06/02 08:20:25;;;;;;;1.65;1.48;;;17.90;80.90;;;;;;5068979;28;20043;-64
2022/06/02 08:23:07;;;;;;;3.25;1.60;;;17.80;80.10;;;;;;5083644;28;20035;-64
2022/06/02 08:26:02;;;;;;;3.65;1.55;;;17.60;82.70;;;;;;5082389;28;20119;-64
2022/06/02 08:29:06;;;;;;;4.72;1.80;;;17.40;79.20;;;;;;5085763;28;20055;-64
2022/06/02 08:31:50;;;;;;;2.97;1.73;;;17.20;77.20;;;;;;5072688;28;20055;-64
2022/06/02 08:34:36;;;;;;;2.60;1.67;;;17.20;78.00;;;;;;5069512;28;20055;-64
2022/06/02 08:37:28;;;;;;;1.92;1.40;;;17.60;74.50;;;;;;5071023;28;20052;-64
2022/06/02 08:40:09;;;;;;;4.90;1.83;;;18.70;73.40;;;;;;5087166;28;20103;-64
2022/06/02 08:43:02;;;;;;;3.55;2.00;;;18.90;69.50;;;;;;5079357;28;20119;-65
2022/06/02 08:45:52;;;;;;;2.42;1.55;;;18.50;72.40;;;;;;5092072;28;20187;-64
2022/06/02 08:48:45;;;;;;;;;;;18.70;72.70;;;;;;5088608;28;20048;-64
2022/06/02 08:51:23;;;;;;;3.55;1.80;;;19.00;70.80;;;;;;5070724;28;19923;-65
2022/06/02 08:54:10;;;;;;;2.70;1.65;;;20.00;69.50;;;;;;5070876;28;20127;-64
2022/06/02 08:56:42;;;;;;;2.80;1.90;;;20.80;70.40;;;;;;5072017;28;20066;-64
2022/06/02 08:59:13;;;;;;;3.53;1.70;;;21.30;64.60;;;;;;5069623;28;20051;-64
2022/06/02 09:01:54;;;;;;;3.45;1.52;;;21.10;67.70;;;;;;5072827;28;20037;-65
2022/06/02 09:04:58;;;;;;;2.58;1.40;;;21.60;66.20;;;;;;5072904;28;20036;-65
2022/06/02 09:07:23;;;;;;;2.08;1.20;;;22.30;63.00;;;;;;5070884;28;20036;-64
2022/06/02 09:10:19;;;;;;;2.90;1.10;;;23.00;64.40;;;;;;5086595;28;20067;-65
2022/06/02 09:13:22;;;;;;;1.67;1.30;;;23.40;53.80;;;;;;5087020;28;20033;-65
2022/06/02 09:16:08;;;;;;;2.55;1.20;;;23.50;55.70;;;;;;5073956;28;20053;-65
2022/06/02 09:19:02;;;;;;;3.15;1.50;;;22.90;57.90;;;;;;5076446;28;20047;-63
2022/06/02 09:21:52;;;;;;;2.90;1.20;;;23.00;52.10;;;;;;5074887;28;20033;-63
2022/06/02 09:24:26;;;;;;;2.35;1.20;;;23.40;57.90;;;;;;5075257;28;20171;-63
2022/06/02 09:27:14;;;;;;;2.30;1.42;;;22.80;60.00;;;;;;5075129;28;20072;-63
2022/06/02 09:29:49;;;;;;;2.28;1.50;;;22.00;59.60;;;;;;5073548;28;20037;-62
2022/06/02 09:32:39;;;;;;;1.77;1.38;;;21.60;58.00;;;;;;5077998;28;20191;-63
2022/06/02 09:35:14;;;;;;;2.25;1.30;;;22.30;56.70;;;;;;5080555;28;20143;-63
2022/06/02 09:38:04;;;;;;;5.43;1.70;;;22.60;58.80;;;;;;5056775;28;20079;-63
2022/06/02 09:40:49;;;;;;;1.90;1.45;;;23.40;53.00;;;;;;5073488;28;20076;-63
2022/06/02 09:43:32;;;;;;;2.30;1.60;;;23.60;54.00;;;;;;5074238;28;20083;-63
2022/06/02 09:46:35;;;;;;;1.98;1.40;;;23.30;51.40;;;;;;5081608;28;20039;-63
2022/06/02 09:49:13;;;;;;;2.28;1.30;;;23.70;47.40;;;;;;5074322;28;20055;-63
2022/06/02 09:51:54;;;;;;;1.33;1.17;;;23.90;44.60;;;;;;5073161;28;20036;-63
2022/06/02 09:54:35;;;;;;;2.65;1.08;;;23.70;50.90;;;;;;5072424;28;20063;-63
2022/06/02 10:00:22;;;;;;;1.98;1.40;;;22.40;56.10;;;;;;5073311;28;20140;-63
2022/06/02 10:03:32;;;;;;;2.53;1.30;;;22.00;57.90;;;;;;5074110;28;20043;-63
2022/06/02 10:06:52;;;;;;;3.03;1.40;;;21.70;59.20;;;;;;5082872;28;20052;-63
2022/06/02 10:09:33;;;;;;;;;;;23.40;55.30;;;;;;5008106;28;20133;-63
2022/06/02 10:15:20;;;;;;;2.10;1.23;;;25.80;51.30;;;;;;5087100;28;20043;-63
2022/06/02 10:17:56;;;;;;;2.17;1.42;;;26.00;44.40;;;;;;5088222;28;20047;-63
2022/06/02 10:20:51;;;;;;;2.22;1.33;;;25.60;45.80;;;;;;5070929;28;20049;-63
2022/06/02 10:23:57;;;;;;;2.38;1.52;;;26.60;45.80;;;;;;5073573;28;20037;-63
2022/06/02 10:26:42;;;;;;;3.72;1.40;;;25.80;46.90;;;;;;5071405;28;20054;-62
2022/06/02 10:29:27;;;;;;;2.03;1.33;;;25.00;49.90;;;;;;5082821;28;20044;-63
2022/06/02 10:32:21;;;;;;;2.35;1.30;;;25.50;44.30;;;;;;5074177;28;20040;-63
2022/06/02 10:35:29;;;;;;;4.07;1.50;;;26.50;47.00;;;;;;5077520;28;20387;-63
2022/06/02 10:38:14;;;;;;;3.28;1.20;;;28.10;44.00;;;;;;5077303;28;20043;-63
2022/06/02 10:41:09;;;;;;;2.25;1.30;;;28.90;38.10;;;;;;5073015;28;20044;-63
2022/06/02 10:43:52;;;;;;;1.75;1.00;;;28.20;38.40;;;;;;5082920;28;20559;-63
2022/06/02 10:46:49;;;;;;;3.38;1.33;;;27.90;41.70;;;;;;5081935;28;20178;-63
2022/06/02 10:49:54;;;;;;;2.90;1.70;;;26.90;43.00;;;;;;5074136;28;20067;-63
2022/06/02 10:53:01;;;;;;;4.57;2.08;;;26.20;42.40;;;;;;5075306;28;20040;-63
2022/06/02 10:56:03;;;;;;;3.25;1.38;;;26.00;43.50;;;;;;5087193;28;20040;-63
2022/06/02 10:58:50;;;;;;;3.38;1.33;;;26.40;41.30;;;;;;5081475;28;20411;-63
2022/06/02 11:01:52;;;;;;;1.38;1.10;;;26.10;40.70;;;;;;5079144;28;20038;-63
2022/06/02 11:04:49;;;;;;;1.90;1.20;;;25.10;38.30;;;;;;5067474;28;20925;-63
2022/06/02 11:07:36;;;;;;;2.75;1.38;;;24.20;43.30;;;;;;5079707;28;20571;-63
2022/06/02 11:10:41;;;;;;;1.75;0.93;;;23.60;45.00;;;;;;5074827;28;20460;-63
2022/06/02 11:13:42;;;;;;;1.65;0.98;;;23.10;47.50;;;;;;5072427;28;20051;-62
2022/06/02 11:16:36;;;;;;;2.22;1.20;;;22.30;51.20;;;;;;5074101;28;20032;-63
2022/06/02 11:19:48;;;;;;;1.70;1.15;;;21.90;50.30;;;;;;5087147;28;20122;-62
2022/06/02 11:22:16;;;;;;;3.60;1.65;;;21.50;52.40;;;;;;5092716;28;20751;-63
2022/06/02 11:25:14;;;;;;;2.22;1.00;;;21.30;53.30;;;;;;5089073;28;20492;-62
2022/06/02 11:28:05;;;;;;;2.40;0.82;;;21.50;49.30;;;;;;5076421;28;20037;-62
2022/06/02 11:30:42;;;;;;;;;;;21.80;50.20;;;;;;5073335;28;20043;-62
2022/06/02 11:33:26;;;;;;;2.60;1.00;;;22.00;50.00;;;;;;5071412;28;20366;-62
2022/06/02 11:36:16;;;;;;;3.08;1.00;;;22.20;51.60;;;;;;5079811;28;20040;-63
2022/06/02 11:39:08;;;;;;;1.70;1.10;;;22.60;52.10;;;;;;5072403;28;20043;-63
2022/06/02 11:42:11;;;;;;;1.38;1.20;;;22.50;51.10;;;;;;5071695;28;20036;-62
2022/06/02 11:45:20;;;;;;;3.00;0.98;;;22.60;50.60;;;;;;5073519;28;20041;-63
2022/06/02 11:48:16;;;;;;;2.35;1.10;;;22.70;50.50;;;;;;5064793;28;20044;-63
2022/06/02 11:51:00;;;;;;;1.85;1.15;;;22.70;50.30;;;;;;5071172;28;20037;-62
2022/06/02 11:53:47;;;;;;;1.75;0.73;;;22.00;50.00;;;;;;5079169;28;20059;-62
2022/06/02 11:56:34;;;;;;;2.75;1.35;;;21.70;50.50;;;;;;5086264;28;20388;-63
2022/06/02 11:59:02;;;;;;;1.38;1.05;;;21.90;51.50;;;;;;5072364;28;20032;-65
2022/06/02 12:02:12;;;;;;;1.58;1.05;;;22.10;49.60;;;;;;5073529;28;20044;-65
2022/06/02 12:04:49;;;;;;;1.88;1.27;;;22.50;48.80;;;;;;5071555;28;20097;-65
2022/06/02 12:07:40;;;;;;;3.35;1.20;;;22.90;49.60;;;;;;5079798;28;20060;-65
2022/06/02 12:10:39;;;;;;;2.45;1.38;;;24.30;49.90;;;;;;5077146;28;20388;-65
2022/06/02 12:13:13;;;;;;;1.65;1.10;;;25.30;47.10;;;;;;5071176;28;20037;-65
2022/06/02 12:15:45;;;;;;;3.40;1.08;;;25.90;44.10;;;;;;5073188;28;20052;-65
2022/06/02 12:18:27;;;;;;;2.92;0.90;;;26.80;39.60;;;;;;5085459;28;20043;-65
2022/06/02 12:21:07;;;;;;;2.30;1.13;;;26.90;39.90;;;;;;5070613;28;20502;-65
2022/06/02 12:23:45;;;;;;;1.45;0.90;;;28.60;38.10;;;;;;5070475;28;20040;-65
2022/06/02 12:26:36;;;;;;;1.98;0.98;;;29.70;37.20;;;;;;5086302;28;20050;-65
2022/06/02 12:29:27;;;;;;;2.85;0.95;;;30.40;35.40;;;;;;5052861;28;20048;-66
2022/06/02 12:32:18;;;;;;;1.92;0.98;;;32.30;35.40;;;;;;5092446;28;20369;-63
2022/06/02 12:35:30;;;;;;;4.05;1.25;;;32.30;34.70;;;;;;5080032;28;20063;-63
2022/06/02 12:38:28;;;;;;;2.25;1.10;;;30.40;36.50;;;;;;5073456;28;20036;-63
2022/06/02 12:41:22;;;;;;;4.95;1.70;;;28.30;37.90;;;;;;5036151;28;20373;-63
2022/06/02 12:44:12;;;;;;;10.05;3.10;;;26.90;39.20;;;;;;5071482;28;20056;-63
2022/06/02 12:46:52;;;;;;;1.30;1.20;;;25.70;39.60;;;;;;5072443;28;20077;-62
2022/06/02 12:49:24;;;;;;;;;;;25.40;40.20;;;;;;5090952;28;20540;-63
2022/06/02 12:52:03;;;;;;;1.63;1.20;;;27.00;40.50;;;;;;5076015;28;20011;-63
2022/06/02 12:54:50;;;;;;;2.40;1.05;;;29.10;37.50;;;;;;5083338;28;20044;-63
2022/06/02 12:57:39;;;;;;;1.50;0.90;;;30.60;34.50;;;;;;5075564;28;20135;-64
2022/06/02 13:00:24;;;;;;;2.08;1.00;;;32.20;32.90;;;;;;5075478;28;20111;-63
2022/06/02 13:03:25;;;;;;;1.27;1.00;;;30.10;32.50;;;;;;5087579;28;20441;-63
2022/06/02 13:06:26;;;;;;;1.80;0.95;;;28.90;36.50;;;;;;5078941;28;20115;-63
2022/06/02 13:09:26;;;;;;;1.95;1.08;;;27.50;37.90;;;;;;5084773;28;20071;-63
2022/06/02 13:11:51;;;;;;;3.35;1.17;;;26.30;39.30;;;;;;5075279;28;20032;-63
2022/06/02 13:15:00;;;;;;;2.22;0.82;;;27.60;39.40;;;;;;5092403;28;20043;-63
2022/06/02 13:17:37;;;;;;;2.20;1.00;;;29.20;37.20;;;;;;5089524;28;20044;-64
2022/06/02 13:20:27;;;;;;;0.95;0.80;;;30.60;34.90;;;;;;5087172;28;20506;-64
2022/06/02 13:23:30;;;;;;;2.35;1.25;;;32.10;33.50;;;;;;5076682;28;20036;-63
2022/06/02 13:26:10;;;;;;;2.22;1.30;;;32.20;33.00;;;;;;5083481;28;20048;-63
2022/06/02 13:28:42;;;;;;;1.92;1.20;;;31.90;30.50;;;;;;5088537;28;20051;-63
2022/06/02 13:31:22;;;;;;;1.52;1.02;;;30.40;32.20;;;;;;5088790;28;20383;-63
2022/06/02 13:34:18;;;;;;;1.30;1.20;;;28.90;34.10;;;;;;5079217;28;20036;-63
2022/06/02 13:37:19;;;;;;;2.63;1.15;;;28.00;36.20;;;;;;5082995;28;20433;-63
2022/06/02 13:39:53;;;;;;;1.48;1.25;;;26.70;37.00;;;;;;5079897;28;20049;-63
2022/06/02 13:42:58;;;;;;;1.85;1.23;;;27.30;38.40;;;;;;5080746;28;20396;-63
2022/06/02 13:45:38;;;;;;;1.58;1.02;;;29.20;37.30;;;;;;5081127;28;20052;-63
2022/06/02 13:48:07;;;;;;;1.35;1.05;;;30.60;34.20;;;;;;5073790;28;20040;-63
2022/06/02 13:51:00;;;;;;;1.35;1.25;;;31.40;33.10;;;;;;5073518;28;20048;-64
2022/06/02 14:00:09;;;;;;;1.17;1.08;;;29.90;33.20;;;;;;5055438;28;20040;-63
2022/06/02 14:03:02;;;;;;;1.73;1.08;;;28.70;35.30;;;;;;5074626;28;20099;-63
2022/06/02 14:05:39;;;;;;;1.75;1.23;;;27.90;36.50;;;;;;5073688;28;20175;-62
2022/06/02 14:08:29;;;;;;;1.75;0.85;;;27.30;37.40;;;;;;5072902;28;20047;-64
2022/06/02 14:10:57;;;;;;;;;;;26.70;38.40;;;;;;5075151;28;20089;-63
2022/06/02 14:13:53;;;;;;;2.95;1.20;;;25.80;40.20;;;;;;5078360;28;19924;-63
2022/06/02 14:16:30;;;;;;;2.47;1.20;;;25.10;40.50;;;;;;5077450;28;20075;-63
2022/06/02 14:19:09;;;;;;;1.65;1.50;;;24.50;40.00;;;;;;5072692;28;20067;-62
2022/06/02 14:21:54;;;;;;;1.95;0.90;;;23.90;40.70;;;;;;5083306;28;20047;-62
2022/06/02 14:25:01;;;;;;;2.05;1.13;;;23.20;42.70;;;;;;5079458;28;20384;-62
2022/06/02 14:27:52;;;;;;;1.70;1.40;;;22.60;44.60;;;;;;5075148;28;20032;-62
2022/06/02 14:30:37;;;;;;;1.40;1.27;;;22.20;45.30;;;;;;5089584;28;20044;-62
2022/06/02 14:33:28;;;;;;;2.50;1.27;;;21.70;44.50;;;;;;5073181;28;20119;-62
2022/06/02 14:36:02;;;;;;;2.80;1.50;;;21.50;46.20;;;;;;5073123;28;20048;-63
2022/06/02 14:38:51;;;;;;;2.22;1.30;;;21.40;47.10;;;;;;5075335;28;20048;-63
2022/06/02 14:41:38;;;;;;;3.53;1.50;;;21.40;47.60;;;;;;5088469;28;20075;-63
2022/06/02 14:44:19;;;;;;;1.73;1.30;;;21.20;47.90;;;;;;5091393;28;20055;-63